Terminal Aerodrome Forecast
Issued by NWS

Home | Current Version | Previous Version | Text Only | Print | Product List | Glossary Off
Versions: 1 2 3 4 5 6 7 8 9 10 11 12 13

000
FTUS43 KICT 211418 AAA
TAFSLN
TAF AMD
KSLN 211418Z 2114/2212 36005KT P6SM BKN015
      TEMPO 2114/2115 OVC009
     FM211600 VRB03KT P6SM SCT015
     FM211700 18007KT P6SM SKC=

USA.gov is the U.S. government's official web portal to all federal, state and local government web resources and services.